Time;durP1;ratioP1;P1;durP2;ratioP2;P2;SDS_P1;SDS_P2;PMS_P1;PMS_P2;Temp;Humidity;BMP_temperature;BMP_pressure;BME280_temperature;BME280_humidity;BME280_pressure;Samples;Min_cycle;Max_cycle;Signal;HPM_P1;HPM_P2
2023/01/17 00:02:16;;;;;;;0.50;0.50;;;;;;;7.41;87.16;97000.69;4994378;28;20475;-69
2023/01/17 00:10:16;;;;;;;0.38;0.38;;;;;;;6.93;88.64;96993.56;5001403;28;20874;-69
2023/01/17 00:12:47;;;;;;;0.50;0.47;;;;;;;6.84;89.55;96994.13;5006837;28;20073;-69
2023/01/17 00:15:13;;;;;;;0.60;0.60;;;;;;;7.15;88.92;97002.50;4997842;28;20039;-69
2023/01/17 00:17:38;;;;;;;0.40;0.40;;;;;;;7.05;89.28;96998.94;4996909;28;20053;-69
2023/01/17 01:35:18;;;;;;;0.60;0.45;;;;;;;7.05;92.61;96985.56;5002031;28;20045;-69
2023/01/17 01:37:46;;;;;;;0.68;0.50;;;;;;;7.08;92.85;96979.38;5008481;28;20046;-70
2023/01/17 01:40:16;;;;;;;0.60;0.60;;;;;;;7.13;93.44;96970.09;5011677;28;20033;-68
2023/01/17 01:43:09;;;;;;;2.03;0.70;;;;;;;7.04;93.43;96972.63;5007104;28;20042;-69
2023/01/17 01:45:35;;;;;;;1.48;0.55;;;;;;;7.13;93.96;96973.50;5010061;28;20046;-68
2023/01/17 01:48:05;;;;;;;0.85;0.50;;;;;;;7.14;94.26;96972.31;5006049;28;20398;-69
2023/01/17 01:50:34;;;;;;;0.63;0.57;;;;;;;7.26;93.31;96968.19;5005303;28;20442;-69
2023/01/17 01:53:01;;;;;;;0.80;0.70;;;;;;;7.26;93.00;96966.28;5010369;28;20040;-68
2023/01/17 01:55:33;;;;;;;0.80;0.80;;;;;;;7.19;93.75;96963.03;5008641;28;20040;-68
2023/01/17 01:58:06;;;;;;;0.35;0.35;;;;;;;7.26;94.22;96966.28;5018706;28;20513;-69
2023/01/17 02:00:35;;;;;;;0.63;0.60;;;;;;;7.27;93.81;96970.47;5006040;28;20842;-69
2023/01/17 02:03:04;;;;;;;0.57;0.50;;;;;;;7.36;93.68;96959.13;5004042;28;20048;-68
2023/01/17 02:05:32;;;;;;;0.65;0.65;;;;;;;7.16;94.04;96966.56;4997539;28;20022;-68
2023/01/17 02:08:06;;;;;;;1.20;0.52;;;;;;;7.22;93.40;96957.59;4994951;28;20054;-69
2023/01/17 02:10:38;;;;;;;0.38;0.38;;;;;;;7.27;93.82;96967.78;5005079;28;20445;-68
2023/01/17 02:13:04;;;;;;;0.55;0.55;;;;;;;7.31;93.09;96965.03;5006589;28;20495;-68
2023/01/17 02:16:08;;;;;;;0.63;0.50;;;;;;;7.39;93.67;96973.59;5002715;28;20394;-69
2023/01/17 02:19:13;;;;;;;1.02;0.70;;;;;;;7.42;92.87;96964.72;4987845;28;20460;-69
2023/01/17 02:22:00;;;;;;;1.85;0.98;;;;;;;7.39;93.50;96966.34;5018552;28;20041;-68
2023/01/17 02:24:44;;;;;;;0.70;0.70;;;;;;;7.49;92.74;96975.25;5002031;28;20089;-68
2023/01/17 02:27:43;;;;;;;1.30;1.00;;;;;;;7.39;93.35;96965.56;4995689;28;20571;-69
2023/01/17 02:30:15;;;;;;;3.38;1.27;;;;;;;7.42;93.26;96967.38;4971190;28;20053;-69
2023/01/17 02:32:40;;;;;;;1.15;0.85;;;;;;;7.19;93.90;96963.81;5005126;28;20046;-70
2023/01/17 02:35:19;;;;;;;0.60;0.60;;;;;;;7.14;94.58;96969.66;5009088;28;20029;-69
2023/01/17 02:38:10;;;;;;;1.38;1.00;;;;;;;7.30;94.42;96961.59;5006207;28;20495;-69
2023/01/17 02:41:04;;;;;;;1.05;0.90;;;;;;;7.38;93.91;96969.41;4997152;28;20495;-69
2023/01/17 02:43:31;;;;;;;1.98;1.23;;;;;;;7.09;95.21;96956.81;5008481;28;20057;-69
2023/01/17 02:45:56;;;;;;;1.00;0.95;;;;;;;7.16;95.33;96951.25;4995403;28;20066;-69
2023/01/17 02:48:24;;;;;;;1.42;1.08;;;;;;;7.24;95.24;96952.56;4998804;28;20072;-69
2023/01/17 02:51:22;;;;;;;1.38;1.20;;;;;;;7.37;95.16;96957.22;4993387;28;20026;-69
2023/01/17 02:54:30;;;;;;;2.22;1.20;;;;;;;7.17;95.88;96954.69;5009506;28;20025;-69
2023/01/17 02:57:25;;;;;;;2.30;1.25;;;;;;;7.22;95.35;96956.84;4970835;28;21525;-69
2023/01/17 03:00:17;;;;;;;1.50;0.93;;;;;;;7.25;95.79;96954.09;5002467;28;20402;-69
2023/01/17 03:02:56;;;;;;;1.55;1.02;;;;;;;7.19;96.11;96958.44;5005536;28;20034;-69
2023/01/17 03:05:43;;;;;;;1.42;0.98;;;;;;;7.29;96.03;96964.69;4993274;28;20041;-69
2023/01/17 03:08:10;;;;;;;2.92;0.90;;;;;;;7.42;95.89;96954.00;4997107;28;20096;-69
2023/01/17 03:10:35;;;;;;;1.83;1.15;;;;;;;7.43;95.37;96963.56;5004250;28;20053;-69
2023/01/17 03:13:02;;;;;;;2.22;1.05;;;;;;;7.38;95.78;96958.69;4993637;28;20030;-69
2023/01/17 03:15:28;;;;;;;1.15;1.05;;;;;;;7.41;95.19;96963.22;4992493;28;20026;-69
2023/01/17 03:18:02;;;;;;;1.33;1.15;;;;;;;7.14;95.93;96966.25;4999281;28;20528;-69
2023/01/17 03:20:28;;;;;;;1.33;1.20;;;;;;;7.17;96.76;96966.16;5008629;28;20034;-69
2023/01/17 03:22:53;;;;;;;2.17;1.45;;;;;;;7.30;95.44;96969.63;5006121;28;20053;-69
2023/01/17 03:25:18;;;;;;;1.55;1.20;;;;;;;7.25;96.41;96964.78;4996910;28;20037;-69
2023/01/17 03:27:44;;;;;;;3.75;2.05;;;;;;;7.43;95.99;96972.34;4996205;28;20173;-69
2023/01/17 03:30:10;;;;;;;2.00;1.38;;;;;;;7.37;95.90;96963.31;5004732;28;20112;-69
2023/01/17 03:32:36;;;;;;;3.35;2.00;;;;;;;7.45;95.51;96975.34;4999426;28;20033;-69
2023/01/17 03:35:02;;;;;;;3.47;2.08;;;;;;;7.16;95.80;96958.56;5005442;28;20026;-69
2023/01/17 03:37:27;;;;;;;3.67;1.58;;;;;;;7.09;97.23;96964.84;5005733;28;20041;-69
2023/01/17 03:39:53;;;;;;;2.88;2.08;;;;;;;7.37;95.91;96962.56;5005400;28;20380;-68
2023/01/17 03:42:18;;;;;;;2.63;1.63;;;;;;;7.38;95.90;96958.69;5012464;23;20144;-70
2023/01/17 03:44:43;;;;;;;2.60;1.73;;;;;;;7.35;96.79;96960.31;5009924;28;20041;-67
2023/01/17 03:47:10;;;;;;;4.53;1.58;;;;;;;7.39;96.67;96962.91;5010482;28;20419;-68
2023/01/17 03:49:37;;;;;;;3.90;1.85;;;;;;;7.46;96.02;96971.47;5008903;28;20137;-67
2023/01/17 03:52:04;;;;;;;1.83;1.65;;;;;;;7.40;96.54;96970.50;5009497;28;20026;-67
2023/01/17 03:54:29;;;;;;;3.65;1.80;;;;;;;7.23;96.60;96972.50;5012730;28;20111;-67
2023/01/17 03:56:54;;;;;;;7.38;2.58;;;;;;;7.22;97.04;96970.22;5022600;28;20502;-68
2023/01/17 03:59:20;;;;;;;2.72;1.45;;;;;;;7.37;96.64;96976.72;5009555;28;20489;-67
2023/01/17 04:01:45;;;;;;;4.13;1.95;;;;;;;7.49;96.04;96977.91;5025233;28;20497;-67
2023/01/17 04:04:11;;;;;;;5.07;1.90;;;;;;;7.48;95.97;96969.13;5006795;28;20044;-67
2023/01/17 04:06:36;;;;;;;1.50;1.40;;;;;;;7.57;95.33;96976.53;5007719;28;20045;-67
2023/01/17 04:09:02;;;;;;;3.78;1.75;;;;;;;7.56;96.02;96981.16;5003830;28;20030;-67
2023/01/17 04:11:27;;;;;;;2.67;1.73;;;;;;;7.57;94.92;96971.94;5025114;28;20048;-67
2023/01/17 04:13:54;;;;;;;2.72;1.80;;;;;;;7.54;95.65;96972.78;5022717;28;20044;-67
2023/01/17 04:16:22;;;;;;;3.08;1.90;;;;;;;7.50;95.71;96976.72;5008424;28;20037;-67
2023/01/17 04:18:47;;;;;;;4.05;1.90;;;;;;;7.60;96.09;96979.13;5005622;28;20549;-67
2023/01/17 04:21:12;;;;;;;5.00;2.38;;;;;;;7.64;95.22;96982.44;5005994;28;20026;-67
2023/01/17 04:23:38;;;;;;;4.43;2.60;;;;;;;7.52;95.58;96987.75;5003501;28;20088;-67
2023/01/17 04:26:03;;;;;;;3.03;1.75;;;;;;;7.50;95.19;96987.44;5020300;28;20406;-68
2023/01/17 04:28:30;;;;;;;4.32;1.98;;;;;;;7.44;96.32;96981.84;5001220;28;20164;-67
2023/01/17 04:30:59;;;;;;;3.85;1.63;;;;;;;7.43;95.91;96993.00;5024809;28;20044;-67
2023/01/17 04:33:25;;;;;;;1.55;1.20;;;;;;;7.11;97.33;96994.59;5005905;28;20044;-67
2023/01/17 04:35:52;;;;;;;3.00;1.77;;;;;;;7.20;96.52;96997.41;5017792;28;20041;-67
2023/01/17 04:38:18;;;;;;;2.05;1.52;;;;;;;7.06;97.02;96997.03;5020141;28;20475;-67
2023/01/17 04:40:43;;;;;;;3.20;1.52;;;;;;;7.14;96.28;97004.44;5000962;28;20105;-67
2023/01/17 04:43:09;;;;;;;1.38;1.10;;;;;;;6.94;97.68;97003.81;5009189;28;20173;-67
2023/01/17 04:45:34;;;;;;;1.33;1.15;;;;;;;7.02;97.49;97004.38;5017036;28;20108;-67
2023/01/17 04:48:06;;;;;;;2.03;1.27;;;;;;;7.12;97.08;97001.41;5006962;28;20041;-67
2023/01/17 04:50:32;;;;;;;1.80;1.30;;;;;;;7.11;96.58;97002.63;5018802;28;20128;-67
2023/01/17 04:52:58;;;;;;;2.03;1.40;;;;;;;7.27;96.51;97012.53;4999662;28;20074;-67
2023/01/17 04:55:24;;;;;;;3.42;1.70;;;;;;;7.27;95.97;97015.19;5000157;28;20048;-67
2023/01/17 04:57:50;;;;;;;2.80;1.42;;;;;;;7.21;95.30;97012.28;5002360;28;20034;-67
2023/01/17 05:00:16;;;;;;;2.53;1.63;;;;;;;7.25;95.32;97015.63;4999748;28;20572;-67
2023/01/17 05:02:41;;;;;;;2.10;1.85;;;;;;;7.37;94.91;97022.19;5013267;28;20041;-67
2023/01/17 05:05:07;;;;;;;1.95;1.40;;;;;;;7.29;94.83;97016.28;5023767;28;20033;-67
2023/01/17 05:07:33;;;;;;;2.42;1.30;;;;;;;7.28;94.91;97017.44;5010201;28;20098;-67
2023/01/17 05:10:01;;;;;;;2.70;1.92;;;;;;;7.24;95.25;97018.69;5015348;28;20133;-67
2023/01/17 05:12:27;;;;;;;2.25;1.55;;;;;;;7.06;95.33;97018.44;5014546;28;20031;-67
2023/01/17 05:14:52;;;;;;;3.53;1.80;;;;;;;7.02;95.77;97020.44;4993441;28;20121;-67
2023/01/17 05:17:18;;;;;;;2.05;1.38;;;;;;;7.10;95.39;97019.09;4996825;28;20037;-67
2023/01/17 05:19:45;;;;;;;2.10;1.23;;;;;;;7.15;95.75;97027.34;4992731;28;20026;-67
2023/01/17 05:22:14;;;;;;;4.25;2.38;;;;;;;7.12;96.06;97027.44;5023285;28;20781;-67
2023/01/17 05:24:45;;;;;;;4.57;2.20;;;;;;;7.18;95.55;97036.47;5009425;28;20038;-67
2023/01/17 05:27:11;;;;;;;1.40;1.20;;;;;;;7.07;95.60;97035.97;5005633;28;20026;-69
2023/01/17 05:29:37;;;;;;;2.28;1.75;;;;;;;7.12;96.27;97046.16;5008353;28;20031;-67
2023/01/17 05:32:03;;;;;;;1.98;1.42;;;;;;;7.11;96.27;97034.72;5000701;28;20037;-67
2023/01/17 05:34:29;;;;;;;4.30;1.60;;;;;;;7.11;95.46;97040.06;5002432;28;20072;-67
2023/01/17 05:36:55;;;;;;;1.58;1.30;;;;;;;7.04;96.44;97044.84;5002959;28;20057;-67
2023/01/17 05:39:20;;;;;;;3.50;1.50;;;;;;;7.14;96.10;97049.19;5003563;28;20042;-67
2023/01/17 05:41:46;;;;;;;3.70;2.22;;;;;;;7.05;96.26;97047.09;5005968;28;20034;-67
2023/01/17 05:44:12;;;;;;;5.10;2.25;;;;;;;7.18;96.34;97052.50;4996332;28;20068;-67
2023/01/17 05:46:37;;;;;;;3.42;1.65;;;;;;;7.21;96.35;97057.78;5008095;28;20494;-67
2023/01/17 05:49:02;;;;;;;2.63;2.10;;;;;;;7.13;96.17;97056.44;5005208;28;20037;-67
2023/01/17 05:51:28;;;;;;;1.98;1.42;;;;;;;7.08;95.95;97053.53;5010947;28;20042;-67
2023/01/17 05:53:54;;;;;;;3.72;2.00;;;;;;;7.08;96.69;97062.28;5028315;28;20474;-68
2023/01/17 05:56:19;;;;;;;1.95;1.05;;;;;;;7.01;96.20;97065.16;5003894;28;20030;-67
2023/01/17 05:58:45;;;;;;;1.58;1.35;;;;;;;6.93;96.92;97068.44;5000582;28;20042;-67
2023/01/17 06:01:10;;;;;;;1.80;1.55;;;;;;;6.96;97.33;97079.03;5002640;28;20466;-67
2023/01/17 06:03:35;;;;;;;1.98;1.50;;;;;;;6.66;98.33;97078.63;5005148;28;20034;-67
2023/01/17 06:06:01;;;;;;;2.55;1.40;;;;;;;6.65;99.44;97083.19;5024651;28;20081;-67
2023/01/17 06:08:26;;;;;;;1.45;0.82;;;;;;;6.86;98.17;97089.97;5009938;28;20065;-67
2023/01/17 06:10:52;;;;;;;4.13;1.25;;;;;;;6.79;98.08;97090.91;5007841;28;20029;-67
2023/01/17 06:13:20;;;;;;;0.70;0.70;;;;;;;6.34;100.00;97090.00;5023256;28;20044;-67
2023/01/17 06:15:46;;;;;;;1.33;0.90;;;;;;;6.48;100.00;97103.06;5008392;28;20093;-67
2023/01/17 06:18:14;;;;;;;0.90;0.52;;;;;;;6.23;100.00;97108.16;5023377;28;20034;-68
2023/01/17 06:20:40;;;;;;;0.80;0.77;;;;;;;6.12;100.00;97111.03;5009378;28;20033;-67
2023/01/17 06:23:09;;;;;;;4.20;0.47;;;;;;;5.85;100.00;97131.78;5010699;28;20037;-67
2023/01/17 06:25:39;;;;;;;0.73;0.40;;;;;;;5.77;100.00;97124.31;5009126;28;20095;-67
2023/01/17 06:28:06;;;;;;;0.55;0.52;;;;;;;5.39;100.00;97143.28;5001494;28;20038;-67
2023/01/17 06:30:32;;;;;;;0.35;0.30;;;;;;;5.29;100.00;97141.53;5018164;28;20045;-67
2023/01/17 06:32:57;;;;;;;0.30;0.30;;;;;;;5.35;100.00;97147.16;5009357;28;20120;-67
2023/01/17 06:35:23;;;;;;;0.40;0.40;;;;;;;5.36;100.00;97162.00;5003282;28;20446;-68
2023/01/17 06:37:54;;;;;;;0.55;0.30;;;;;;;5.77;100.00;97167.75;5021929;28;20033;-68
2023/01/17 06:40:21;;;;;;;0.75;0.40;;;;;;;5.62;100.00;97168.41;5004664;28;20042;-67
2023/01/17 06:42:46;;;;;;;0.30;0.30;;;;;;;5.51;100.00;97181.94;5002827;28;20486;-67
2023/01/17 06:45:12;;;;;;;0.30;0.30;;;;;;;5.64;100.00;97198.88;5007039;28;20030;-67
2023/01/17 06:47:39;;;;;;;0.30;0.30;;;;;;;5.41;100.00;97212.22;5002339;28;20048;-67
2023/01/17 06:50:06;;;;;;;0.30;0.30;;;;;;;5.39;100.00;97207.28;4999125;28;20034;-69
2023/01/17 06:52:32;;;;;;;0.20;0.20;;;;;;;5.29;100.00;97218.88;5008745;28;20430;-68
2023/01/17 06:54:57;;;;;;;0.20;0.20;;;;;;;5.25;100.00;97218.16;5001717;28;20034;-66
2023/01/17 06:57:23;;;;;;;0.35;0.35;;;;;;;5.61;100.00;97228.28;5004057;28;20033;-67
2023/01/17 06:59:48;;;;;;;0.20;0.20;;;;;;;5.60;100.00;97226.78;5003641;28;21783;-67
2023/01/17 07:02:14;;;;;;;0.40;0.40;;;;;;;5.25;100.00;97241.41;5003818;28;20814;-67
2023/01/17 07:04:40;;;;;;;0.20;0.20;;;;;;;5.31;100.00;97237.91;5008321;28;20043;-67
2023/01/17 07:07:05;;;;;;;0.50;0.45;;;;;;;5.09;100.00;97242.00;5004302;28;20038;-67
2023/01/17 07:09:31;;;;;;;0.30;0.30;;;;;;;5.26;100.00;97257.03;5006937;28;20045;-67
2023/01/17 07:12:00;;;;;;;0.47;0.47;;;;;;;5.04;100.00;97266.47;5009100;28;20037;-67
2023/01/17 07:14:27;;;;;;;0.20;0.20;;;;;;;5.04;100.00;97271.81;5010480;28;20487;-67
2023/01/17 07:16:53;;;;;;;0.30;0.30;;;;;;;5.31;100.00;97282.47;5004372;28;20449;-67
2023/01/17 07:19:19;;;;;;;0.52;0.30;;;;;;;5.00;100.00;97297.00;5008123;28;20096;-67
2023/01/17 07:21:44;;;;;;;0.40;0.40;;;;;;;5.12;100.00;97293.78;5006880;28;20041;-67
2023/01/17 07:24:10;;;;;;;0.30;0.30;;;;;;;5.37;100.00;97302.97;5007498;28;20124;-67
2023/01/17 07:26:39;;;;;;;0.60;0.50;;;;;;;5.46;100.00;97319.22;5002709;28;20038;-67
2023/01/17 07:29:05;;;;;;;0.30;0.30;;;;;;;5.39;100.00;97319.34;5004244;28;20045;-66
2023/01/17 07:31:35;;;;;;;5.68;0.55;;;;;;;5.64;100.00;97329.63;5022958;28;20117;-67
2023/01/17 07:34:01;;;;;;;0.73;0.50;;;;;;;5.33;100.00;97325.50;5008343;28;20038;-67
2023/01/17 07:36:27;;;;;;;2.33;0.65;;;;;;;5.41;100.00;97335.69;5025058;28;20038;-67
2023/01/17 07:38:53;;;;;;;0.40;0.40;;;;;;;5.43;100.00;97341.38;5009928;28;20120;-67
2023/01/17 07:41:19;;;;;;;0.90;0.40;;;;;;;5.49;100.00;97339.00;5009247;28;20200;-67
2023/01/17 07:43:44;;;;;;;0.38;0.38;;;;;;;5.48;100.00;97343.59;5010629;28;20547;-67
2023/01/17 07:46:10;;;;;;;0.47;0.30;;;;;;;5.05;100.00;97358.63;5026091;28;20036;-67
2023/01/17 07:48:36;;;;;;;0.85;0.60;;;;;;;5.11;100.00;97357.03;5006611;28;20034;-67
2023/01/17 07:51:01;;;;;;;0.40;0.40;;;;;;;5.52;100.00;97358.81;5006004;28;20116;-67
2023/01/17 07:53:30;;;;;;;0.55;0.50;;;;;;;6.02;99.09;97368.34;5009974;28;20080;-67
2023/01/17 07:56:00;;;;;;;0.50;0.40;;;;;;;6.14;97.75;97378.47;5010337;28;20038;-67
2023/01/17 07:58:26;;;;;;;0.63;0.50;;;;;;;6.35;96.73;97382.72;5012236;28;20072;-67
2023/01/17 08:00:51;;;;;;;0.30;0.30;;;;;;;6.16;96.71;97394.84;5008170;28;20320;-67
2023/01/17 08:03:17;;;;;;;0.30;0.30;;;;;;;6.16;97.12;97392.19;5022899;28;20088;-67
2023/01/17 08:05:51;;;;;;;0.55;0.43;;;;;;;6.24;96.57;97403.50;5011010;28;20445;-67
2023/01/17 08:08:16;;;;;;;0.50;0.50;;;;;;;6.28;95.75;97404.22;5004690;28;20034;-67
2023/01/17 08:10:42;;;;;;;0.20;0.20;;;;;;;6.09;96.12;97412.91;5022971;28;20030;-67
2023/01/17 08:13:07;;;;;;;0.30;0.30;;;;;;;6.12;96.79;97420.84;5007691;28;20045;-67
2023/01/17 08:15:33;;;;;;;0.47;0.35;;;;;;;6.25;96.54;97429.06;5008154;28;20038;-67
2023/01/17 08:17:59;;;;;;;0.28;0.28;;;;;;;6.17;95.91;97425.75;5007990;28;20041;-67
2023/01/17 08:20:25;;;;;;;0.50;0.50;;;;;;;6.06;97.08;97429.72;5007218;28;20049;-67
2023/01/17 08:22:55;;;;;;;0.38;0.38;;;;;;;6.04;96.84;97429.41;5024331;28;20133;-67
2023/01/17 08:25:23;;;;;;;0.30;0.30;;;;;;;5.94;97.24;97440.97;5012624;28;20061;-67
2023/01/17 08:27:48;;;;;;;3.35;0.70;;;;;;;5.93;97.63;97444.78;5007775;28;20053;-67
2023/01/17 08:30:14;;;;;;;4.03;0.40;;;;;;;6.15;96.39;97452.13;5008913;28;20058;-67
2023/01/17 08:32:40;;;;;;;2.10;0.75;;;;;;;6.14;96.36;97463.94;5007448;28;20056;-67
2023/01/17 08:35:08;;;;;;;7.03;0.30;;;;;;;6.19;96.63;97460.06;5022603;28;20596;-67
2023/01/17 08:37:36;;;;;;;0.50;0.50;;;;;;;6.20;96.14;97456.22;5005413;28;20046;-67
2023/01/17 08:40:04;;;;;;;0.40;0.40;;;;;;;6.11;96.71;97462.09;5021535;28;20061;-67
2023/01/17 08:42:36;;;;;;;1.85;0.70;;;;;;;6.15;96.83;97470.06;5018280;28;20112;-67
2023/01/17 08:45:05;;;;;;;0.90;0.43;;;;;;;6.44;95.29;97471.16;5002782;28;20065;-67
2023/01/17 08:47:32;;;;;;;0.30;0.30;;;;;;;6.52;94.10;97479.81;5002060;28;20033;-67
2023/01/17 08:50:00;;;;;;;0.45;0.45;;;;;;;6.35;94.81;97487.69;5012515;28;20034;-67
2023/01/17 08:52:28;;;;;;;1.10;0.30;;;;;;;6.37;94.51;97488.03;5007814;28;20090;-68
2023/01/17 08:54:54;;;;;;;1.00;0.65;;;;;;;6.41;94.01;97487.97;5006329;28;20099;-67
2023/01/17 08:57:23;;;;;;;0.35;0.35;;;;;;;6.45;94.47;97495.94;4999836;28;20037;-68
2023/01/17 08:59:48;;;;;;;0.35;0.32;;;;;;;6.58;93.68;97492.28;5019898;28;20034;-67
2023/01/17 09:02:15;;;;;;;0.63;0.57;;;;;;;6.65;93.08;97497.53;5005668;28;20045;-68
2023/01/17 09:04:48;;;;;;;0.77;0.63;;;;;;;6.64;93.20;97501.34;5018265;28;20124;-68
2023/01/17 09:07:19;;;;;;;3.80;0.85;;;;;;;6.72;93.28;97507.34;5026632;28;20054;-67
2023/01/17 09:09:45;;;;;;;0.50;0.30;;;;;;;6.49;93.94;97505.41;5008552;28;20109;-66
2023/01/17 09:12:31;;;;;;;1.05;0.47;;;;;;;6.58;94.09;97513.66;5027876;28;20037;-67
2023/01/17 09:14:56;;;;;;;1.23;0.70;;;;;;;6.53;94.22;97516.81;4950307;28;20135;-67
2023/01/17 09:17:22;;;;;;;2.08;0.45;;;;;;;6.58;94.46;97523.63;4945948;28;20318;-67
2023/01/17 09:19:47;;;;;;;0.20;0.20;;;;;;;6.71;93.20;97519.22;4938833;28;20105;-67
2023/01/17 09:22:13;;;;;;;0.50;0.50;;;;;;;6.71;93.28;97516.53;4932195;28;20031;-67
2023/01/17 09:24:39;;;;;;;0.75;0.40;;;;;;;6.71;92.50;97528.00;4948216;28;20043;-67
2023/01/17 09:27:05;;;;;;;0.43;0.40;;;;;;;6.81;92.54;97529.00;4952117;28;20122;-67
2023/01/17 09:29:31;;;;;;;0.25;0.25;;;;;;;6.63;91.88;97529.25;4934559;29;20396;-68
2023/01/17 09:31:56;;;;;;;0.30;0.30;;;;;;;6.53;93.26;97527.50;4936387;28;20496;-67
2023/01/17 09:34:25;;;;;;;1.88;0.80;;;;;;;6.56;94.37;97532.06;4933777;28;20521;-68
2023/01/17 09:36:50;;;;;;;0.77;0.40;;;;;;;6.73;93.37;97536.38;4943728;28;20046;-67
2023/01/17 09:39:16;;;;;;;0.52;0.52;;;;;;;6.94;92.55;97544.06;4948467;28;20051;-67
2023/01/17 09:42:07;;;;;;;0.63;0.30;;;;;;;6.87;92.27;97551.44;4950211;28;20070;-67
2023/01/17 09:44:46;;;;;;;0.30;0.30;;;;;;;6.91;92.10;97566.25;4959618;28;20049;-68
2023/01/17 09:47:15;;;;;;;1.08;0.52;;;;;;;6.93;91.83;97571.22;4940368;28;20051;-68
2023/01/17 09:49:44;;;;;;;0.40;0.40;;;;;;;6.78;91.71;97569.91;4929187;28;20126;-68
2023/01/17 09:52:16;;;;;;;0.40;0.38;;;;;;;6.57;92.57;97580.91;4988740;28;20042;-67
2023/01/17 09:54:45;;;;;;;0.30;0.30;;;;;;;6.60;92.27;97577.44;5030377;28;20498;-67
2023/01/17 09:57:25;;;;;;;0.77;0.60;;;;;;;6.68;92.57;97582.25;5043040;22;20041;-68
2023/01/17 10:00:11;;;;;;;1.33;0.70;;;;;;;6.77;91.69;97582.53;5020019;28;20037;-66
2023/01/17 10:03:08;;;;;;;0.30;0.30;;;;;;;6.85;91.67;97591.94;5021568;28;20632;-66
2023/01/17 10:05:36;;;;;;;1.58;0.65;;;;;;;6.66;91.43;97605.22;5002535;28;20079;-66
2023/01/17 10:08:18;;;;;;;0.47;0.35;;;;;;;6.46;91.54;97605.13;4997218;28;20088;-66
2023/01/17 10:10:43;;;;;;;;;;;;;;;6.49;91.65;97606.22;5007688;28;20042;-67
2023/01/17 10:13:35;;;;;;;0.20;0.20;;;;;;;6.44;92.05;97602.09;4990542;28;19918;-67
2023/01/17 10:16:31;;;;;;;0.20;0.20;;;;;;;6.51;93.15;97603.91;4996219;28;20033;-66
2023/01/17 10:19:18;;;;;;;0.40;0.40;;;;;;;6.56;92.47;97611.47;5007751;28;20434;-66
2023/01/17 10:21:57;;;;;;;2.78;0.57;;;;;;;6.60;91.84;97601.50;5009654;28;20022;-66
2023/01/17 10:24:26;;;;;;;0.25;0.25;;;;;;;6.54;92.24;97605.78;5006014;28;20045;-66
2023/01/17 10:26:55;;;;;;;0.95;0.57;;;;;;;6.93;92.00;97611.34;5005564;28;20061;-66
2023/01/17 10:29:22;;;;;;;2.00;1.02;;;;;;;7.27;90.42;97607.34;5006218;28;20030;-66
2023/01/17 10:31:54;;;;;;;0.40;0.40;;;;;;;7.40;89.28;97618.19;5000296;28;20045;-67
2023/01/17 10:34:39;;;;;;;0.25;0.25;;;;;;;7.54;89.32;97620.63;4989946;28;20038;-66
2023/01/17 10:37:19;;;;;;;0.32;0.32;;;;;;;7.58;88.48;97625.94;5007509;28;20034;-66
2023/01/17 10:39:47;;;;;;;0.60;0.50;;;;;;;7.69;87.72;97623.81;5004584;28;20505;-66
2023/01/17 10:42:18;;;;;;;0.98;0.40;;;;;;;7.76;86.42;97621.75;5008518;28;20099;-66
2023/01/17 10:45:14;;;;;;;4.53;0.47;;;;;;;7.67;85.56;97623.47;5001571;28;20033;-66
2023/01/17 10:47:45;;;;;;;1.02;0.57;;;;;;;7.48;85.39;97635.66;4995839;28;20073;-66
2023/01/17 10:50:15;;;;;;;0.63;0.50;;;;;;;7.54;84.42;97615.28;4995496;28;20030;-66
2023/01/17 10:52:42;;;;;;;0.90;0.40;;;;;;;7.40;84.74;97623.56;5004383;28;20402;-66
2023/01/17 10:55:10;;;;;;;0.40;0.40;;;;;;;7.52;83.14;97622.19;4997358;28;20033;-66
2023/01/17 10:57:41;;;;;;;0.30;0.30;;;;;;;7.29;83.96;97615.72;4991741;28;20518;-66
2023/01/17 11:00:24;;;;;;;0.50;0.45;;;;;;;7.63;82.03;97633.47;4983459;28;20030;-66
2023/01/17 11:02:50;;;;;;;0.40;0.40;;;;;;;7.71;81.46;97646.34;4999149;28;20042;-66
2023/01/17 11:05:25;;;;;;;4.47;0.40;;;;;;;7.32;82.59;97646.22;5001668;28;20080;-66
2023/01/17 11:08:01;;;;;;;0.93;0.38;;;;;;;7.49;82.86;97647.13;4998669;28;20034;-66
2023/01/17 11:10:49;;;;;;;0.13;0.13;;;;;;;7.32;81.78;97650.84;4991390;28;20058;-66
2023/01/17 11:13:30;;;;;;;0.70;0.35;;;;;;;7.43;79.92;97646.06;5004940;28;20044;-66
2023/01/17 11:16:04;;;;;;;0.60;0.60;;;;;;;7.48;79.32;97653.63;4999335;28;20029;-66
2023/01/17 11:18:35;;;;;;;0.30;0.30;;;;;;;7.49;78.48;97647.13;5007915;28;20038;-66
2023/01/17 11:21:20;;;;;;;0.20;0.20;;;;;;;7.51;78.34;97658.91;5007026;28;20030;-66
2023/01/17 11:23:57;;;;;;;3.83;0.57;;;;;;;7.42;79.30;97663.28;5006194;28;20031;-66
2023/01/17 11:26:27;;;;;;;0.20;0.20;;;;;;;7.25;80.95;97663.19;5004047;28;20504;-66
2023/01/17 11:29:13;;;;;;;0.20;0.20;;;;;;;7.48;79.46;97670.47;4997323;28;20088;-66
2023/01/17 11:31:38;;;;;;;0.40;0.40;;;;;;;7.36;79.06;97663.00;4997955;28;20037;-66
2023/01/17 11:34:13;;;;;;;0.38;0.38;;;;;;;7.32;77.88;97673.75;5008439;28;20061;-66
2023/01/17 11:36:38;;;;;;;4.38;0.30;;;;;;;7.28;78.06;97665.03;4998365;28;20033;-66
2023/01/17 11:39:16;;;;;;;1.10;0.90;;;;;;;7.25;78.87;97657.84;5008763;28;20120;-66
2023/01/17 11:41:42;;;;;;;0.20;0.20;;;;;;;7.14;79.76;97665.25;5001298;28;20117;-66
2023/01/17 11:44:29;;;;;;;0.73;0.40;;;;;;;7.19;78.61;97670.16;4991568;28;20038;-66
2023/01/17 11:47:12;;;;;;;0.20;0.20;;;;;;;6.98;80.58;97659.00;4991086;28;20038;-66
2023/01/17 11:49:39;;;;;;;0.45;0.40;;;;;;;6.81;81.32;97668.81;4986928;28;20046;-66
2023/01/17 11:52:10;;;;;;;4.95;0.50;;;;;;;7.12;78.85;97658.81;4991074;28;20492;-66
2023/01/17 11:54:39;;;;;;;0.53;0.40;;;;;;;7.07;79.51;97672.63;5002003;28;20397;-66
2023/01/17 11:57:21;;;;;;;0.47;0.35;;;;;;;7.24;78.39;97676.94;5002171;28;20030;-66
2023/01/17 11:59:47;;;;;;;1.75;0.40;;;;;;;7.25;77.70;97673.88;5003140;28;20060;-67
2023/01/17 12:02:31;;;;;;;0.20;0.20;;;;;;;7.21;77.25;97677.75;5005791;28;20500;-66
2023/01/17 12:05:23;;;;;;;0.20;0.20;;;;;;;6.96;77.76;97678.13;4999615;28;20029;-66
2023/01/17 12:08:12;;;;;;;0.45;0.30;;;;;;;7.20;76.49;97677.00;5007489;28;20062;-66
2023/01/17 12:10:52;;;;;;;4.18;0.70;;;;;;;7.12;76.43;97680.94;4995885;28;20052;-66
2023/01/17 12:16:31;;;;;;;0.30;0.30;;;;;;;7.16;75.30;97696.97;4990640;28;20169;-66
2023/01/17 12:19:25;;;;;;;0.38;0.38;;;;;;;7.11;75.67;97684.03;4998970;28;20540;-66
2023/01/17 12:22:36;;;;;;;3.67;0.43;;;;;;;7.23;76.02;97691.50;5003526;28;20111;-66
2023/01/17 12:25:05;;;;;;;1.25;0.60;;;;;;;7.27;76.58;97703.69;4984025;28;20026;-66
2023/01/17 12:27:49;;;;;;;0.75;0.57;;;;;;;7.35;74.81;97701.66;5000673;28;20041;-66
2023/01/17 12:30:56;;;;;;;0.30;0.30;;;;;;;7.54;73.89;97702.88;5002566;28;20405;-66
2023/01/17 12:33:53;;;;;;;3.13;0.47;;;;;;;7.40;75.09;97706.53;5001130;28;20120;-66
2023/01/17 12:36:34;;;;;;;2.88;0.50;;;;;;;7.56;73.45;97713.94;5000924;28;20080;-66
2023/01/17 12:39:08;;;;;;;2.53;0.57;;;;;;;7.35;74.17;97706.22;4986346;28;20253;-66
2023/01/17 12:42:03;;;;;;;0.25;0.25;;;;;;;7.56;73.07;97717.38;4988846;28;20045;-66
2023/01/17 12:44:45;;;;;;;0.30;0.30;;;;;;;7.40;73.16;97714.56;4965596;28;20148;-66
2023/01/17 12:47:14;;;;;;;0.38;0.38;;;;;;;7.34;73.87;97718.84;5006785;28;20085;-66
2023/01/17 12:50:21;;;;;;;0.30;0.30;;;;;;;7.55;72.21;97712.44;4992629;28;20033;-66
2023/01/17 12:52:53;;;;;;;0.20;0.20;;;;;;;7.56;71.42;97722.72;5010249;28;20044;-66
2023/01/17 12:55:52;;;;;;;1.00;0.73;;;;;;;7.52;71.89;97719.34;5008544;28;20564;-66
2023/01/17 12:58:24;;;;;;;0.20;0.20;;;;;;;7.64;72.34;97726.06;5005110;28;20030;-66
2023/01/17 13:01:05;;;;;;;0.82;0.43;;;;;;;7.66;71.28;97729.06;5000291;28;20462;-66
2023/01/17 13:03:46;;;;;;;0.75;0.43;;;;;;;7.68;70.96;97726.75;4999865;28;20101;-66
2023/01/17 13:06:23;;;;;;;1.92;0.47;;;;;;;7.53;70.94;97717.44;5006892;28;20033;-67
2023/01/17 13:08:53;;;;;;;0.50;0.50;;;;;;;7.66;69.64;97729.84;5000442;28;20127;-66
2023/01/17 13:11:28;;;;;;;0.35;0.30;;;;;;;7.58;69.55;97725.00;5001171;28;20042;-67
2023/01/17 13:13:56;;;;;;;1.05;0.45;;;;;;;7.72;68.37;97735.50;5003669;28;20076;-68
2023/01/17 13:16:38;;;;;;;0.30;0.20;;;;;;;7.68;68.54;97748.94;4999875;28;20124;-67
2023/01/17 13:19:16;;;;;;;0.40;0.40;;;;;;;7.60;69.82;97747.53;4998650;28;20042;-66
2023/01/17 13:21:41;;;;;;;0.40;0.40;;;;;;;7.67;69.86;97752.00;4987498;28;20091;-66
2023/01/17 13:24:39;;;;;;;0.30;0.30;;;;;;;7.68;69.27;97756.22;5007836;28;20030;-66
2023/01/17 13:27:10;;;;;;;0.28;0.28;;;;;;;7.77;68.99;97756.44;5005276;28;20041;-66